createdAt,value
2022-08-20T00:00:40.588Z,14.60
2022-08-20T00:03:18.685Z,19.88
2022-08-20T00:05:56.724Z,13.93
2022-08-20T00:08:23.657Z,11.40
2022-08-20T00:10:55.533Z,19.52
2022-08-20T00:13:31.590Z,15.35
2022-08-20T00:15:59.482Z,10.07
2022-08-20T00:18:27.022Z,11.43
2022-08-20T00:20:55.766Z,11.23
2022-08-20T00:23:24.900Z,12.73
2022-08-20T00:25:52.178Z,11.30
2022-08-20T00:28:19.508Z,12.07
2022-08-20T00:30:46.766Z,10.15
2022-08-20T00:33:19.143Z,14.63
2022-08-20T00:35:53.377Z,11.77
2022-08-20T00:38:20.796Z,16.17
2022-08-20T00:40:54.445Z,10.48
2022-08-20T00:43:43.098Z,12.60
2022-08-20T00:46:14.314Z,11.77
2022-08-20T00:48:47.746Z,10.70
2022-08-20T00:51:23.334Z,9.80
2022-08-20T00:53:50.521Z,17.00
2022-08-20T00:56:17.153Z,11.07
2022-08-20T00:58:45.194Z,11.10
2022-08-20T01:01:13.170Z,12.40
2022-08-20T01:03:44.147Z,12.98
2022-08-20T01:06:11.778Z,14.32
2022-08-20T01:08:39.923Z,13.13
2022-08-20T01:11:12.267Z,13.50
2022-08-20T01:13:45.297Z,15.07
2022-08-20T01:16:19.989Z,9.77
2022-08-20T01:18:48.328Z,12.80
2022-08-20T01:21:16.958Z,13.18
2022-08-20T01:23:55.671Z,12.75
2022-08-20T01:26:28.450Z,15.23
2022-08-20T01:29:06.093Z,14.75
2022-08-20T01:31:36.102Z,10.43
2022-08-20T01:34:07.892Z,15.75
2022-08-20T01:36:43.016Z,13.00
2022-08-20T01:39:15.868Z,13.55
2022-08-20T01:42:09.340Z,14.85
2022-08-20T01:44:38.754Z,16.70
2022-08-20T01:47:20.334Z,14.63
2022-08-20T01:49:52.252Z,13.68
2022-08-20T01:52:33.466Z,10.98
2022-08-20T01:55:00.250Z,12.48
2022-08-20T01:57:27.321Z,15.07
2022-08-20T01:59:53.983Z,12.52
2022-08-20T02:02:21.010Z,13.38
2022-08-20T02:04:48.955Z,14.07
2022-08-20T02:07:19.592Z,11.82
2022-08-20T02:09:47.480Z,13.93
2022-08-20T02:12:14.802Z,13.73
2022-08-20T02:14:46.502Z,11.32
2022-08-20T02:17:13.894Z,12.20
2022-08-20T02:19:50.927Z,10.85
2022-08-20T02:22:26.032Z,13.45
2022-08-20T02:27:23.450Z,11.60
2022-08-20T02:29:51.248Z,14.75
2022-08-20T02:32:24.284Z,11.93
2022-08-20T02:35:03.138Z,12.55
2022-08-20T02:37:30.356Z,12.50
2022-08-20T02:39:56.958Z,12.13
2022-08-20T02:42:23.833Z,12.88
2022-08-20T02:44:50.431Z,11.65
2022-08-20T02:47:17.265Z,11.60
2022-08-20T02:49:43.874Z,10.68
2022-08-20T02:52:10.581Z,12.18
2022-08-20T02:54:37.172Z,16.27
2022-08-20T02:57:04.763Z,13.68
2022-08-20T02:59:31.465Z,14.73
2022-08-20T03:02:00.812Z,15.40
2022-08-20T03:04:32.407Z,18.85
2022-08-20T03:06:59.754Z,12.48
2022-08-20T03:09:26.941Z,16.67
2022-08-20T03:11:54.158Z,12.00
2022-08-20T03:14:20.781Z,15.95
2022-08-20T03:16:47.337Z,12.02
2022-08-20T03:19:14.004Z,13.70
2022-08-20T03:21:41.423Z,14.35
2022-08-20T03:24:08.323Z,15.60
2022-08-20T03:26:34.848Z,15.35
2022-08-20T03:29:01.734Z,15.32
2022-08-20T03:31:28.320Z,12.52
2022-08-20T03:33:58.137Z,16.52
2022-08-20T03:36:28.394Z,13.57
2022-08-20T03:39:01.546Z,14.45
2022-08-20T03:41:28.956Z,13.65
2022-08-20T03:43:59.565Z,14.65
2022-08-20T03:46:26.134Z,15.32
2022-08-20T03:48:58.705Z,14.38
2022-08-20T03:51:29.447Z,17.40
2022-08-20T03:54:00.073Z,17.92
2022-08-20T03:56:27.618Z,15.90
2022-08-20T03:58:55.450Z,17.38
2022-08-20T04:01:45.188Z,20.88
2022-08-20T04:04:12.640Z,13.65
2022-08-20T04:06:40.030Z,16.02
2022-08-20T04:09:07.104Z,18.77
2022-08-20T04:11:37.258Z,18.08
2022-08-20T04:14:03.962Z,16.35
2022-08-20T04:16:33.055Z,15.95
2022-08-20T04:19:02.382Z,20.83
2022-08-20T04:21:34.431Z,18.83
2022-08-20T04:24:06.116Z,21.67
2022-08-20T04:26:37.178Z,20.45
2022-08-20T04:29:04.585Z,21.20
2022-08-20T04:31:34.000Z,20.55
2022-08-20T04:34:03.338Z,25.88
2022-08-20T04:36:30.671Z,22.50
2022-08-20T04:38:57.254Z,20.65
2022-08-20T04:41:24.516Z,23.63
2022-08-20T04:43:57.134Z,24.98
2022-08-20T04:46:28.567Z,27.73
2022-08-20T04:48:57.317Z,28.33
2022-08-20T04:51:24.503Z,27.15
2022-08-20T04:53:53.695Z,24.25
2022-08-20T04:56:26.730Z,27.70
2022-08-20T04:58:58.904Z,28.20
2022-08-20T05:01:26.712Z,25.08
2022-08-20T05:03:55.334Z,26.48
2022-08-20T05:06:25.393Z,29.30
2022-08-20T05:08:53.717Z,28.55
2022-08-20T05:11:35.936Z,28.83
2022-08-20T05:14:07.766Z,31.23
2022-08-20T05:16:38.851Z,31.73
2022-08-20T05:19:08.797Z,34.75
2022-08-20T05:21:35.567Z,33.25
2022-08-20T05:24:05.196Z,32.63
2022-08-20T05:26:33.345Z,38.45
2022-08-20T05:28:59.884Z,36.60
2022-08-20T05:31:32.603Z,36.33
2022-08-20T05:34:10.704Z,36.53
2022-08-20T05:36:49.620Z,39.20
2022-08-20T05:39:18.303Z,37.45
2022-08-20T05:41:45.209Z,37.80
2022-08-20T05:44:15.998Z,39.10
2022-08-20T05:46:44.687Z,38.72
2022-08-20T05:49:15.503Z,38.17
2022-08-20T05:51:43.137Z,40.38
2022-08-20T05:54:12.362Z,39.53
2022-08-20T05:56:39.476Z,40.53
2022-08-20T05:59:08.376Z,44.80
2022-08-20T06:01:37.016Z,46.30
2022-08-20T06:04:22.721Z,43.20
2022-08-20T06:06:51.667Z,40.05
2022-08-20T06:09:30.678Z,40.30
2022-08-20T06:11:59.538Z,45.38
2022-08-20T06:14:27.154Z,45.85
2022-08-20T06:16:57.417Z,44.35
2022-08-20T06:19:26.563Z,43.17
2022-08-20T06:21:53.926Z,36.90
2022-08-20T06:24:25.066Z,39.20
2022-08-20T06:26:56.670Z,41.58
2022-08-20T06:29:23.198Z,42.58
2022-08-20T06:31:49.702Z,38.78
2022-08-20T06:34:16.621Z,39.53
2022-08-20T06:36:46.648Z,38.25
2022-08-20T06:39:15.955Z,41.60
2022-08-20T06:41:43.193Z,40.95
2022-08-20T06:44:10.124Z,41.75
2022-08-20T06:46:38.339Z,36.60
2022-08-20T06:49:07.089Z,37.60
2022-08-20T06:51:34.301Z,35.60
2022-08-20T06:54:00.928Z,37.15
2022-08-20T06:56:27.535Z,36.92
2022-08-20T06:58:54.040Z,38.65
2022-08-20T07:01:21.256Z,34.67
2022-08-20T07:03:55.787Z,37.17
2022-08-20T07:06:25.331Z,36.80
2022-08-20T07:08:52.123Z,35.97
2022-08-20T07:11:24.926Z,37.20
2022-08-20T07:13:58.357Z,37.42
2022-08-20T07:16:25.643Z,35.67
2022-08-20T07:18:52.135Z,34.88
2022-08-20T07:21:18.670Z,31.77
2022-08-20T07:23:45.315Z,35.67
2022-08-20T07:26:13.139Z,32.33
2022-08-20T07:28:39.670Z,30.70
2022-08-20T07:31:25.080Z,29.63
2022-08-20T07:33:51.647Z,29.33
2022-08-20T07:36:20.297Z,27.23
2022-08-20T07:38:50.768Z,26.00
2022-08-20T07:41:17.330Z,26.27
2022-08-20T07:43:48.853Z,24.02
2022-08-20T07:46:20.759Z,22.90
2022-08-20T07:48:50.104Z,22.63
2022-08-20T07:51:20.353Z,23.58
2022-08-20T07:53:51.791Z,26.48
2022-08-20T07:56:21.596Z,22.85
2022-08-20T07:58:55.456Z,22.25
2022-08-20T08:01:31.390Z,22.92
2022-08-20T08:04:02.634Z,24.08
2022-08-20T08:06:31.489Z,29.60
2022-08-20T08:09:13.068Z,23.73
2022-08-20T08:11:47.394Z,25.08
2022-08-20T08:14:19.503Z,26.65
2022-08-20T08:16:46.401Z,25.73
2022-08-20T08:19:15.261Z,22.17
2022-08-20T08:21:42.040Z,24.52
2022-08-20T08:24:12.687Z,21.92
2022-08-20T08:26:41.042Z,24.35
2022-08-20T08:29:07.699Z,21.73
2022-08-20T08:31:34.785Z,21.48
2022-08-20T08:34:05.465Z,19.83
2022-08-20T08:36:32.326Z,20.25
2022-08-20T08:38:58.926Z,17.00
2022-08-20T08:41:40.340Z,15.90
2022-08-20T08:44:25.024Z,17.67
2022-08-20T08:46:58.951Z,18.38
2022-08-20T08:49:38.130Z,18.70
2022-08-20T08:52:11.713Z,16.30
2022-08-20T08:54:47.564Z,14.95
2022-08-20T08:57:14.158Z,15.77
2022-08-20T08:59:47.361Z,14.80
2022-08-20T09:02:30.597Z,14.70
2022-08-20T09:05:01.891Z,17.15
2022-08-20T09:07:33.061Z,18.90
2022-08-20T09:10:01.238Z,17.02
2022-08-20T09:12:27.886Z,15.13
2022-08-20T09:14:55.039Z,14.50
2022-08-20T09:17:22.845Z,15.70
2022-08-20T09:19:50.314Z,14.85
2022-08-20T09:22:19.966Z,11.93
2022-08-20T09:24:47.343Z,16.42
2022-08-20T09:27:14.230Z,15.30
2022-08-20T09:29:41.023Z,11.43
2022-08-20T09:32:20.853Z,10.02
2022-08-20T09:34:55.935Z,10.95
2022-08-20T09:37:24.268Z,10.95
2022-08-20T09:39:51.011Z,14.18
2022-08-20T09:42:20.945Z,15.50
2022-08-20T09:44:48.140Z,13.20
2022-08-20T09:47:15.510Z,12.73
2022-08-20T09:49:42.074Z,9.55
2022-08-20T09:52:14.138Z,12.95
2022-08-20T09:54:42.310Z,9.18
2022-08-20T09:57:15.067Z,9.90
2022-08-20T09:59:41.925Z,12.20
2022-08-20T10:02:08.463Z,13.68
2022-08-20T10:04:35.839Z,9.38
2022-08-20T10:07:06.414Z,12.00
2022-08-20T10:09:34.654Z,8.45
2022-08-20T10:12:01.461Z,11.32
2022-08-20T10:14:29.346Z,11.25
2022-08-20T10:17:01.297Z,10.25
2022-08-20T10:19:30.074Z,7.82
2022-08-20T10:21:57.486Z,11.20
2022-08-20T10:24:28.934Z,8.25
2022-08-20T10:26:58.610Z,11.50
2022-08-20T10:29:26.680Z,10.95
2022-08-20T10:31:54.908Z,9.27
2022-08-20T10:34:24.159Z,10.10
2022-08-20T10:36:50.785Z,9.18
2022-08-20T10:39:17.397Z,6.45
2022-08-20T10:41:43.957Z,5.90
2022-08-20T10:44:10.537Z,12.48
2022-08-20T10:46:38.159Z,7.57
2022-08-20T10:49:05.056Z,6.20
2022-08-20T10:51:32.869Z,10.43
2022-08-20T10:54:01.095Z,6.65
2022-08-20T10:56:27.712Z,9.32
2022-08-20T10:58:54.262Z,7.93
2022-08-20T11:01:31.172Z,7.57
2022-08-20T11:04:00.014Z,7.95
2022-08-20T11:06:26.518Z,6.15
2022-08-20T11:08:53.095Z,7.45
2022-08-20T11:11:19.639Z,7.45
2022-08-20T11:13:50.206Z,8.30
2022-08-20T11:16:16.774Z,8.48
2022-08-20T11:18:47.318Z,7.88
2022-08-20T11:21:14.654Z,6.82
2022-08-20T11:23:45.675Z,5.25
2022-08-20T11:26:21.881Z,8.55
2022-08-20T11:28:48.489Z,6.45
2022-08-20T11:31:15.064Z,9.13
2022-08-20T11:33:41.582Z,9.70
2022-08-20T11:36:09.681Z,10.00
2022-08-20T11:38:36.222Z,8.80
2022-08-20T11:41:02.701Z,5.05
2022-08-20T11:43:30.762Z,7.07
2022-08-20T11:45:57.900Z,8.15
2022-08-20T11:48:24.482Z,7.95
2022-08-20T11:50:51.080Z,4.68
2022-08-20T11:53:21.586Z,5.10
2022-08-20T11:55:49.133Z,8.93
2022-08-20T11:58:16.096Z,5.72
2022-08-20T12:00:43.188Z,5.15
2022-08-20T12:03:14.705Z,7.47
2022-08-20T12:05:43.854Z,7.20
2022-08-20T12:08:26.931Z,6.30
2022-08-20T12:10:54.559Z,6.15
2022-08-20T12:13:25.250Z,6.40
2022-08-20T12:15:57.980Z,7.60
2022-08-20T12:18:27.160Z,7.60
2022-08-20T12:20:54.065Z,5.45
2022-08-20T12:23:21.870Z,9.18
2022-08-20T12:25:48.998Z,6.13
2022-08-20T12:28:15.665Z,6.18
2022-08-20T12:30:42.517Z,5.40
2022-08-20T12:33:10.779Z,5.25
2022-08-20T12:35:37.965Z,5.38
2022-08-20T12:38:05.860Z,8.07
2022-08-20T12:40:33.963Z,7.00
2022-08-20T12:43:16.233Z,8.18
2022-08-20T12:45:43.062Z,5.90
2022-08-20T12:48:12.498Z,6.47
2022-08-20T12:50:43.018Z,6.38
2022-08-20T12:53:14.066Z,7.00
2022-08-20T12:55:40.682Z,9.90
2022-08-20T12:58:09.784Z,6.43
2022-08-20T13:00:44.295Z,6.32
2022-08-20T13:03:15.815Z,6.30
2022-08-20T13:05:42.466Z,6.15
2022-08-20T13:08:11.523Z,7.32
2022-08-20T13:10:45.659Z,3.88
2022-08-20T13:13:15.334Z,9.32
2022-08-20T13:15:44.328Z,5.80
2022-08-20T13:18:10.859Z,7.25
2022-08-20T13:20:37.575Z,6.95
2022-08-20T13:23:07.449Z,5.07
2022-08-20T13:25:34.508Z,6.05
2022-08-20T13:28:04.326Z,8.43
2022-08-20T13:30:34.097Z,3.63
2022-08-20T13:33:08.270Z,6.20
2022-08-20T13:35:34.899Z,5.75
2022-08-20T13:38:01.510Z,7.43
2022-08-20T13:40:28.364Z,7.57
2022-08-20T13:42:55.245Z,6.50
2022-08-20T13:45:22.174Z,7.43
2022-08-20T13:47:53.049Z,5.20
2022-08-20T13:50:21.630Z,7.47
2022-08-20T13:52:48.411Z,7.32
2022-08-20T13:55:17.489Z,6.70
2022-08-20T13:57:46.117Z,6.70
2022-08-20T14:00:18.524Z,6.15
2022-08-20T14:02:45.292Z,5.18
2022-08-20T14:05:18.431Z,8.23
2022-08-20T14:07:47.694Z,5.88
2022-08-20T14:10:18.686Z,5.07
2022-08-20T14:12:46.146Z,6.78
2022-08-20T14:15:13.958Z,8.68
2022-08-20T14:17:48.882Z,4.93
2022-08-20T14:20:19.527Z,9.13
2022-08-20T14:22:46.346Z,6.07
2022-08-20T14:25:15.322Z,8.32
2022-08-20T14:27:42.622Z,6.20
2022-08-20T14:30:13.689Z,9.60
2022-08-20T14:32:40.258Z,9.40
2022-08-20T14:35:08.826Z,9.20
2022-08-20T14:37:38.457Z,7.05
2022-08-20T14:40:09.795Z,7.35
2022-08-20T14:42:37.058Z,4.97
2022-08-20T14:45:06.403Z,8.73
2022-08-20T14:47:39.349Z,5.22
2022-08-20T14:50:14.074Z,6.55
2022-08-20T14:55:11.792Z,4.68
2022-08-20T14:57:40.024Z,8.38
2022-08-20T15:00:10.039Z,6.93
2022-08-20T15:02:37.015Z,8.43
2022-08-20T15:05:07.030Z,7.05
2022-08-20T15:07:38.427Z,5.03
2022-08-20T15:10:09.930Z,6.90
2022-08-20T15:12:36.611Z,4.07
2022-08-20T15:15:14.168Z,5.90
2022-08-20T15:17:50.932Z,7.13
2022-08-20T15:20:20.321Z,7.20
2022-08-20T15:22:48.500Z,9.35
2022-08-20T15:25:17.810Z,6.10
2022-08-20T15:27:45.100Z,6.40
2022-08-20T15:30:15.835Z,7.30
2022-08-20T15:32:42.402Z,8.48
2022-08-20T15:35:11.319Z,8.48
2022-08-20T15:37:43.441Z,9.45
2022-08-20T15:40:12.895Z,7.97
2022-08-20T15:42:43.015Z,7.18
2022-08-20T15:45:12.883Z,6.28
2022-08-20T15:47:59.351Z,7.68
2022-08-20T15:51:14.173Z,6.00
2022-08-20T15:53:55.926Z,6.45
2022-08-20T15:57:01.445Z,7.35
2022-08-20T15:59:58.861Z,7.00
2022-08-20T16:02:47.209Z,8.98
2022-08-20T16:05:39.687Z,8.52
2022-08-20T16:08:48.123Z,7.50
2022-08-20T16:11:24.706Z,8.02
2022-08-20T16:14:19.718Z,7.25
2022-08-20T16:16:50.554Z,7.47
2022-08-20T16:19:31.799Z,7.45
2022-08-20T16:21:59.479Z,7.95
2022-08-20T16:24:28.251Z,6.03
2022-08-20T16:27:24.138Z,10.90
2022-08-20T16:29:51.140Z,6.32
2022-08-20T16:32:38.142Z,5.60
2022-08-20T16:35:07.587Z,11.82
2022-08-20T16:37:43.215Z,5.53
2022-08-20T16:40:26.710Z,7.22
2022-08-20T16:42:57.515Z,5.68
2022-08-20T16:45:27.577Z,7.28
2022-08-20T16:48:00.025Z,5.95
2022-08-20T16:50:31.950Z,11.50
2022-08-20T16:52:58.661Z,9.23
2022-08-20T16:55:25.721Z,5.40
2022-08-20T16:57:53.724Z,5.70
2022-08-20T17:00:23.310Z,3.63
2022-08-20T17:02:54.261Z,6.85
2022-08-20T17:05:23.157Z,8.80
2022-08-20T17:07:53.376Z,7.07
2022-08-20T17:10:27.179Z,6.32
2022-08-20T17:12:59.463Z,5.00
2022-08-20T17:15:29.955Z,12.80
2022-08-20T17:17:56.661Z,6.18
2022-08-20T17:20:28.078Z,7.82
2022-08-20T17:23:18.528Z,4.78
2022-08-20T17:25:55.263Z,8.07
2022-08-20T17:28:23.298Z,7.43
2022-08-20T17:30:49.851Z,5.88
2022-08-20T17:33:34.809Z,5.97
2022-08-20T17:36:08.110Z,5.93
2022-08-20T17:38:37.722Z,5.10
2022-08-20T17:41:17.193Z,6.20
2022-08-20T17:43:45.632Z,5.43
2022-08-20T17:46:19.053Z,5.55
2022-08-20T17:48:47.693Z,5.68
2022-08-20T17:51:21.342Z,10.82
2022-08-20T17:54:00.263Z,6.05
2022-08-20T17:56:32.701Z,6.45
2022-08-20T17:59:07.229Z,4.60
2022-08-20T18:01:37.104Z,3.63
2022-08-20T18:04:05.550Z,4.97
2022-08-20T18:06:50.475Z,7.68
2022-08-20T18:09:34.879Z,4.35
2022-08-20T18:12:34.349Z,7.53
2022-08-20T18:15:20.158Z,4.13
2022-08-20T18:17:58.338Z,6.05
2022-08-20T18:20:44.454Z,5.93
2022-08-20T18:23:33.068Z,9.13
2022-08-20T18:26:05.267Z,5.40
2022-08-20T18:28:38.974Z,6.72
2022-08-20T18:31:08.965Z,5.35
2022-08-20T18:33:42.771Z,6.88
2022-08-20T18:36:30.341Z,9.38
2022-08-20T18:39:05.827Z,6.63
2022-08-20T18:41:36.363Z,6.00
2022-08-20T18:44:11.934Z,5.10
2022-08-20T18:46:52.248Z,3.88
2022-08-20T18:49:29.228Z,6.03
2022-08-20T18:51:57.381Z,7.63
2022-08-20T18:54:32.340Z,5.40
2022-08-20T18:57:08.558Z,7.15
2022-08-20T18:59:42.706Z,4.28
2022-08-20T19:02:33.244Z,3.07
2022-08-20T19:05:06.845Z,5.05
2022-08-20T19:07:48.965Z,4.97
2022-08-20T19:10:33.719Z,5.07
2022-08-20T19:13:28.054Z,6.47
2022-08-20T19:16:02.786Z,5.75
2022-08-20T19:18:54.959Z,6.72
2022-08-20T19:21:35.510Z,6.45
2022-08-20T19:24:06.928Z,4.47
2022-08-20T19:26:42.513Z,5.13
2022-08-20T19:29:12.987Z,6.45
2022-08-20T19:31:41.567Z,8.15
2022-08-20T19:34:22.238Z,5.45
2022-08-20T19:37:28.157Z,4.03
2022-08-20T19:39:52.158Z,6.10
2022-08-20T19:42:24.455Z,4.68
2022-08-20T19:45:00.108Z,9.30
2022-08-20T19:47:32.989Z,9.23
2022-08-20T19:50:03.730Z,6.75
2022-08-20T19:53:16.267Z,4.50
2022-08-20T19:55:42.923Z,3.90
2022-08-20T19:58:26.163Z,6.10
2022-08-20T20:00:55.364Z,5.45
2022-08-20T20:03:28.738Z,4.35
2022-08-20T20:05:57.273Z,5.88
2022-08-20T20:08:29.465Z,3.80
2022-08-20T20:11:00.319Z,4.63
2022-08-20T20:13:33.258Z,4.82
2022-08-20T20:16:04.819Z,4.68
2022-08-20T20:18:35.326Z,4.00
2022-08-20T20:21:20.485Z,5.32
2022-08-20T20:23:58.263Z,3.13
2022-08-20T20:26:31.064Z,8.15
2022-08-20T20:29:09.528Z,8.35
2022-08-20T20:31:53.051Z,8.20
2022-08-20T20:34:35.781Z,6.47
2022-08-20T20:37:50.145Z,7.63
2022-08-20T20:40:26.543Z,9.90
2022-08-20T20:43:21.963Z,7.25
2022-08-20T20:46:14.755Z,6.20
2022-08-20T20:48:48.525Z,7.80
2022-08-20T20:51:18.261Z,8.48
2022-08-20T20:53:54.435Z,6.75
2022-08-20T20:56:43.178Z,4.43
2022-08-20T20:59:11.164Z,5.53
2022-08-20T21:01:49.938Z,6.40
2022-08-20T21:04:19.685Z,4.43
2022-08-20T21:06:46.226Z,6.05
2022-08-20T21:09:13.399Z,5.18
2022-08-20T21:11:39.901Z,4.53
2022-08-20T21:14:10.856Z,5.57
2022-08-20T21:16:37.375Z,7.68
2022-08-20T21:19:06.440Z,4.57
2022-08-20T21:21:33.207Z,3.80
2022-08-20T21:24:03.223Z,4.97
2022-08-20T21:26:29.985Z,5.35
2022-08-20T21:28:56.623Z,4.82
2022-08-20T21:31:30.238Z,6.43
2022-08-20T21:33:56.765Z,5.70
2022-08-20T21:36:23.291Z,5.82
2022-08-20T21:38:49.798Z,6.68
2022-08-20T21:41:16.314Z,6.72
2022-08-20T21:43:43.624Z,5.63
2022-08-20T21:46:15.474Z,6.53
2022-08-20T21:48:46.337Z,7.18
2022-08-20T21:51:14.551Z,6.10
2022-08-20T21:53:42.372Z,6.70
2022-08-20T21:56:10.025Z,5.13
2022-08-20T21:58:37.471Z,4.60
2022-08-20T22:01:05.496Z,6.55
2022-08-20T22:03:38.542Z,6.43
2022-08-20T22:06:07.233Z,5.40
2022-08-20T22:08:34.343Z,5.68
2022-08-20T22:11:01.580Z,6.00
2022-08-20T22:13:32.885Z,6.00
2022-08-20T22:16:01.207Z,6.53
2022-08-20T22:18:27.977Z,5.28
2022-08-20T22:20:54.735Z,6.45
2022-08-20T22:23:23.137Z,4.68
2022-08-20T22:25:50.205Z,4.32
2022-08-20T22:28:17.282Z,5.43
2022-08-20T22:30:44.138Z,5.75
2022-08-20T22:33:22.669Z,6.55
2022-08-20T22:35:53.180Z,6.97
2022-08-20T22:38:20.205Z,7.13
2022-08-20T22:40:46.796Z,4.28
2022-08-20T22:43:15.885Z,5.20
2022-08-20T22:45:45.354Z,5.50
2022-08-20T22:48:16.210Z,5.40
2022-08-20T22:50:43.023Z,8.75
2022-08-20T22:53:12.614Z,6.05
2022-08-20T22:55:39.589Z,5.50
2022-08-20T22:58:06.794Z,6.63
2022-08-20T23:00:34.924Z,5.07
2022-08-20T23:03:17.979Z,5.53
2022-08-20T23:05:49.390Z,4.25
2022-08-20T23:08:16.289Z,5.13
2022-08-20T23:10:42.929Z,6.30
2022-08-20T23:13:13.545Z,5.13
2022-08-20T23:15:45.268Z,4.93
2022-08-20T23:18:18.469Z,4.78
2022-08-20T23:20:56.116Z,4.63
2022-08-20T23:23:26.162Z,4.47
2022-08-20T23:25:53.844Z,3.88
2022-08-20T23:28:22.532Z,5.45
2022-08-20T23:30:49.614Z,4.55
2022-08-20T23:33:18.098Z,5.80
2022-08-20T23:35:45.502Z,7.32
2022-08-20T23:38:12.528Z,7.25
2022-08-20T23:40:39.551Z,7.18
2022-08-20T23:43:14.909Z,4.70
2022-08-20T23:48:08.733Z,7.97
2022-08-20T23:50:36.600Z,5.80
2022-08-20T23:53:07.717Z,6.82
2022-08-20T23:55:34.940Z,8.68
2022-08-20T23:58:01.763Z,6.18
